トビリシ の空港の天気 - METARとTAF

トビリシ国際空港 ( UGTB / TBS ) - ジョージア トビリシ
飛行場実況気象(Metar)
観測時間02/17 18:30 GET (02/17 14:30 UTC)
風向・風速北西 19m/s 瞬間風速25m/s
視程10km以上
天気現象
なし
気温6℃
湿度52%
気圧1016hPa
METARUGTB 171430Z 31037G48KT CAVOK 06/M03 Q1016 NOSIG
過去の天気等 Google飛行場航空写真 Wunderground天気予報

過去48時間のMETAR

飛行場予報(TAF)
発表時間: 2/17 15:00 GET (2/17 11:00 UTC)
予報対象時間: 17日16時 GET ~ 18日16時 GET
風向・風速北西 13m/s
視程10km以上
全天の4割程度の雲 雲底高度 1830m
17日16時 GET ~ 17日23時 GET に一時的に
風向・風速北西 18m/s 瞬間風速 24m/s
18日4時 GET ~ 18日9時 GET に一時的に
風向・風速北西 9m/s 瞬間風速 14m/s
全天の8割程度の雲 雲底高度 1070m
18日11時 GET ~ 18日16時 GET に一時的に
風向・風速北西 18m/s 瞬間風速 23m/s
TAF UGTB 171100Z 1712/1812 32025KT 9999 SCT060 TX11/1811Z TN04/1803Z
TEMPO 1712/1719 31035G47KT
TEMPO 1800/1805 31017G27KT BKN035
TEMPO 1807/1812 31035G45KT